createdAt,value
2018-12-19T00:00:51.319Z,1.08
2018-12-19T00:01:51.308Z,1.14
2018-12-19T00:02:51.286Z,1.12
2018-12-19T00:03:51.269Z,1.11
2018-12-19T00:04:51.253Z,1.09
2018-12-19T00:05:51.233Z,1.16
2018-12-19T00:06:51.221Z,1.14
2018-12-19T00:07:51.202Z,1.08
2018-12-19T00:08:51.186Z,1.06
2018-12-19T00:09:51.167Z,1.14
2018-12-19T00:10:51.152Z,1.14
2018-12-19T00:11:51.134Z,1.14
2018-12-19T00:12:51.125Z,1.14
2018-12-19T00:13:51.107Z,1.12
2018-12-19T00:14:51.084Z,1.16
2018-12-19T00:15:51.066Z,1.09
2018-12-19T00:16:51.057Z,1.09
2018-12-19T00:17:51.039Z,1.2
2018-12-19T00:18:51.017Z,1.14
2018-12-19T00:19:51.002Z,1.15
2018-12-19T00:20:50.986Z,1.14
2018-12-19T00:21:50.967Z,1.15
2018-12-19T00:22:50.951Z,1.15
2018-12-19T00:23:50.934Z,1.12
2018-12-19T00:24:50.915Z,1.11
2018-12-19T00:25:50.904Z,1.22
2018-12-19T00:26:50.885Z,1.16
2018-12-19T00:27:50.867Z,1.12
2018-12-19T00:28:50.849Z,1.15
2018-12-19T00:29:50.834Z,1.16
2018-12-19T00:30:50.815Z,1.11
2018-12-19T00:31:50.798Z,1.11
2018-12-19T00:32:50.781Z,1.15
2018-12-19T00:33:50.766Z,1.15
2018-12-19T00:34:50.749Z,1.06
2018-12-19T00:35:50.733Z,1.11
2018-12-19T00:36:50.714Z,1.12
2018-12-19T00:37:50.702Z,1.09
2018-12-19T00:38:50.683Z,1.14
2018-12-19T00:39:50.667Z,1.06
2018-12-19T00:40:50.646Z,1.05
2018-12-19T00:41:50.642Z,1.08
2018-12-19T00:42:50.618Z,1.12
2018-12-19T00:43:50.597Z,1.02
2018-12-19T00:44:50.583Z,1.02
2018-12-19T00:45:50.562Z,1.02
2018-12-19T00:46:50.550Z,1.08
2018-12-19T00:47:50.534Z,1.08
2018-12-19T00:48:50.513Z,1.11
2018-12-19T00:49:50.980Z,1.11
2018-12-19T00:50:50.481Z,1.06
2018-12-19T00:51:50.465Z,1.08
2018-12-19T00:52:50.445Z,1.09
2018-12-19T00:53:50.435Z,1.02
2018-12-19T00:54:50.412Z,1.05
2018-12-19T00:55:50.396Z,1.06
2018-12-19T00:56:50.378Z,1.06
2018-12-19T00:57:50.359Z,1.02
2018-12-19T00:58:50.354Z,0.97
2018-12-19T00:59:50.328Z,1.04
2018-12-19T01:00:50.312Z,1.04
2018-12-19T01:01:50.296Z,1.04
2018-12-19T01:02:50.277Z,1
2018-12-19T01:03:50.263Z,1
2018-12-19T01:04:52.995Z,1.02
2018-12-19T01:05:50.226Z,1.05
2018-12-19T01:06:50.215Z,0.96
2018-12-19T01:07:50.198Z,0.97
2018-12-19T01:08:50.177Z,1.04
2018-12-19T01:09:50.165Z,0.96
2018-12-19T01:10:50.149Z,1
2018-12-19T01:11:50.128Z,0.94
2018-12-19T01:12:50.111Z,0.91
2018-12-19T01:13:50.092Z,0.91
2018-12-19T01:14:50.078Z,0.93
2018-12-19T01:15:50.057Z,0.88
2018-12-19T01:16:50.043Z,0.9
2018-12-19T01:17:50.024Z,1
2018-12-19T01:18:50.010Z,0.94
2018-12-19T01:19:49.994Z,0.93
2018-12-19T01:20:49.975Z,0.84
2018-12-19T01:21:49.967Z,0.86
2018-12-19T01:22:49.939Z,0.88
2018-12-19T01:23:49.921Z,0.83
2018-12-19T01:24:49.903Z,0.86
2018-12-19T01:25:49.894Z,0.83
2018-12-19T01:26:49.873Z,0.86
2018-12-19T01:27:49.857Z,0.86
2018-12-19T01:28:49.839Z,0.79
2018-12-19T01:29:49.822Z,0.93
2018-12-19T01:30:49.809Z,0.87
2018-12-19T01:31:49.789Z,0.94
2018-12-19T01:32:49.774Z,0.86
2018-12-19T01:33:49.758Z,0.84
2018-12-19T01:34:49.745Z,0.84
2018-12-19T01:35:49.721Z,0.88
2018-12-19T01:36:49.718Z,0.8
2018-12-19T01:37:49.687Z,0.86
2018-12-19T01:38:49.674Z,0.88
2018-12-19T01:39:49.654Z,0.78
2018-12-19T01:40:49.637Z,0.96
2018-12-19T01:41:49.623Z,0.94
2018-12-19T01:42:49.601Z,0.88
2018-12-19T01:43:49.589Z,0.84
2018-12-19T01:44:49.566Z,0.93
2018-12-19T01:45:49.567Z,0.86
2018-12-19T01:46:49.532Z,1
2018-12-19T01:47:49.515Z,0.86
2018-12-19T01:48:49.503Z,0.84
2018-12-19T01:49:49.483Z,0.79
2018-12-19T01:50:49.471Z,0.87
2018-12-19T01:51:49.447Z,0.87
2018-12-19T01:52:49.430Z,0.93
2018-12-19T01:53:49.415Z,0.91
2018-12-19T01:54:49.451Z,0.84
2018-12-19T01:55:49.382Z,0.84
2018-12-19T01:56:49.363Z,0.87
2018-12-19T01:57:49.353Z,0.83
2018-12-19T01:58:49.330Z,0.86
2018-12-19T01:59:49.318Z,0.86
2018-12-19T02:00:49.301Z,0.8
2018-12-19T02:01:49.280Z,0.86
2018-12-19T02:02:49.262Z,0.86
2018-12-19T02:03:49.243Z,0.88
2018-12-19T02:04:49.226Z,0.98
2018-12-19T02:05:49.212Z,0.94
2018-12-19T02:06:49.196Z,0.93
2018-12-19T02:07:49.184Z,0.91
2018-12-19T02:08:49.162Z,0.91
2018-12-19T02:09:49.144Z,0.9
2018-12-19T02:10:49.126Z,0.91
2018-12-19T02:11:49.110Z,0.88
2018-12-19T02:12:49.091Z,0.88
2018-12-19T02:13:49.078Z,0.93
2018-12-19T02:14:49.128Z,0.86
2018-12-19T02:15:49.046Z,0.83
2018-12-19T02:16:49.022Z,0.87
2018-12-19T02:17:49.016Z,0.83
2018-12-19T02:18:48.989Z,0.84
2018-12-19T02:19:48.973Z,0.83
2018-12-19T02:20:48.956Z,0.96
2018-12-19T02:21:48.938Z,0.86
2018-12-19T02:22:48.925Z,0.84
2018-12-19T02:23:48.914Z,0.86
2018-12-19T02:24:48.888Z,0.88
2018-12-19T02:25:48.870Z,0.83
2018-12-19T02:26:48.854Z,0.9
2018-12-19T02:27:48.840Z,0.91
2018-12-19T02:28:48.823Z,0.9
2018-12-19T02:29:48.804Z,0.93
2018-12-19T02:30:48.787Z,0.9
2018-12-19T02:31:48.777Z,0.96
2018-12-19T02:32:48.757Z,0.94
2018-12-19T02:33:48.739Z,0.94
2018-12-19T02:34:48.722Z,0.91
2018-12-19T02:35:48.703Z,0.91
2018-12-19T02:36:48.686Z,0.91
2018-12-19T02:37:48.666Z,0.98
2018-12-19T02:38:48.672Z,1.02
2018-12-19T02:39:48.639Z,0.98
2018-12-19T02:40:48.631Z,0.96
2018-12-19T02:41:48.600Z,0.98
2018-12-19T02:42:48.610Z,1.04
2018-12-19T02:43:48.589Z,0.97
2018-12-19T02:44:48.311Z,0.98
2018-12-19T02:45:48.534Z,0.98
2018-12-19T02:46:48.516Z,0.98
2018-12-19T02:47:48.505Z,0.98
2018-12-19T02:48:48.482Z,0.98
2018-12-19T02:49:48.465Z,1.02
2018-12-19T02:50:48.449Z,1.02
2018-12-19T02:51:48.429Z,0.97
2018-12-19T02:52:48.413Z,1
2018-12-19T02:53:48.402Z,1.05
2018-12-19T02:54:48.381Z,1
2018-12-19T02:55:48.364Z,0.96
2018-12-19T02:56:48.350Z,1.02
2018-12-19T02:57:48.331Z,0.97
2018-12-19T02:58:48.313Z,0.96
2018-12-19T02:59:48.295Z,0.97
2018-12-19T03:00:48.278Z,0.94
2018-12-19T03:01:48.265Z,0.97
2018-12-19T03:02:48.259Z,0.97
2018-12-19T03:03:48.227Z,0.96
2018-12-19T03:04:48.217Z,0.96
2018-12-19T03:05:48.194Z,0.98
2018-12-19T03:06:47.935Z,0.94
2018-12-19T03:07:48.179Z,1
2018-12-19T03:08:48.156Z,0.96
2018-12-19T03:09:48.126Z,0.96
2018-12-19T03:10:48.114Z,0.94
2018-12-19T03:11:48.100Z,0.97
2018-12-19T03:12:48.076Z,1
2018-12-19T03:13:48.064Z,0.98
2018-12-19T03:14:48.044Z,0.98
2018-12-19T03:15:48.034Z,0.98
2018-12-19T03:16:48.008Z,1.04
2018-12-19T03:17:48.000Z,1.06
2018-12-19T03:18:47.989Z,1
2018-12-19T03:19:47.952Z,0.98
2018-12-19T03:20:47.939Z,0.98
2018-12-19T03:21:47.920Z,1.11
2018-12-19T03:22:47.904Z,1.05
2018-12-19T03:23:47.891Z,1.12
2018-12-19T03:24:47.876Z,1.02
2018-12-19T03:25:47.859Z,1.06
2018-12-19T03:26:47.838Z,0.98
2018-12-19T03:27:47.829Z,1.02
2018-12-19T03:28:47.810Z,1.12
2018-12-19T03:29:47.788Z,1.16
2018-12-19T03:30:47.791Z,1.12
2018-12-19T03:31:47.765Z,1.12
2018-12-19T03:32:47.742Z,1.11
2018-12-19T03:33:47.730Z,1.12
2018-12-19T03:34:47.708Z,1.2
2018-12-19T03:35:47.685Z,1.11
2018-12-19T03:36:47.682Z,1.09
2018-12-19T03:37:47.651Z,1.18
2018-12-19T03:38:47.635Z,1.12
2018-12-19T03:39:54.821Z,1.14
2018-12-19T03:40:47.615Z,1.16
2018-12-19T03:41:47.590Z,1.11
2018-12-19T03:42:47.330Z,1.11
2018-12-19T03:43:47.306Z,1.12
2018-12-19T03:44:47.546Z,1.15
2018-12-19T03:45:47.516Z,1.16
2018-12-19T03:46:47.500Z,1.16
2018-12-19T03:47:47.487Z,1.12
2018-12-19T03:48:47.466Z,1.14
2018-12-19T03:49:47.458Z,1.12
2018-12-19T03:50:47.434Z,1.15
2018-12-19T03:51:47.414Z,1.16
2018-12-19T03:52:47.397Z,1.12
2018-12-19T03:53:47.390Z,1.24
2018-12-19T03:54:47.368Z,1.27
2018-12-19T03:55:47.351Z,1.29
2018-12-19T03:56:47.330Z,1.23
2018-12-19T03:57:47.318Z,1.23
2018-12-19T03:58:47.295Z,1.26
2018-12-19T03:59:47.291Z,1.24
2018-12-19T04:00:47.267Z,1.22
2018-12-19T04:01:47.275Z,1.16
2018-12-19T04:02:47.228Z,1.24
2018-12-19T04:03:47.215Z,1.16
2018-12-19T04:04:47.200Z,1.14
2018-12-19T04:05:47.183Z,1.14
2018-12-19T04:06:47.165Z,1.11
2018-12-19T04:07:47.219Z,1.16
2018-12-19T04:08:47.129Z,1.11
2018-12-19T04:09:47.117Z,1.14
2018-12-19T04:10:47.111Z,1.16
2018-12-19T04:11:46.852Z,1.15
2018-12-19T04:12:47.060Z,1.11
2018-12-19T04:13:47.045Z,1.16
2018-12-19T04:14:47.026Z,1.09
2018-12-19T04:15:47.071Z,1.11
2018-12-19T04:16:47.081Z,1.2
2018-12-19T04:17:46.979Z,1.15
2018-12-19T04:18:46.978Z,1.2
2018-12-19T04:19:46.949Z,1.09
2018-12-19T04:20:46.977Z,1.14
2018-12-19T04:21:46.912Z,1.11
2018-12-19T04:22:46.900Z,1.09
2018-12-19T04:23:46.879Z,1.16
2018-12-19T04:24:46.867Z,1.12
2018-12-19T04:25:46.854Z,1.15
2018-12-19T04:26:46.826Z,1.12
2018-12-19T04:27:46.809Z,1.11
2018-12-19T04:28:46.801Z,1.12
2018-12-19T04:29:46.781Z,1.12
2018-12-19T04:30:46.764Z,1.14
2018-12-19T04:31:46.746Z,1.18
2018-12-19T04:32:46.723Z,1.29
2018-12-19T04:33:46.709Z,1.27
2018-12-19T04:34:46.696Z,1.32
2018-12-19T04:35:46.677Z,1.32
2018-12-19T04:36:46.660Z,1.29
2018-12-19T04:37:46.646Z,1.27
2018-12-19T04:38:46.625Z,1.29
2018-12-19T04:39:46.612Z,1.26
2018-12-19T04:40:46.625Z,1.3
2018-12-19T04:41:46.576Z,1.29
2018-12-19T04:42:46.564Z,1.32
2018-12-19T04:43:46.547Z,1.26
2018-12-19T04:44:46.535Z,1.24
2018-12-19T04:45:46.506Z,1.29
2018-12-19T04:46:46.511Z,1.27
2018-12-19T04:47:46.475Z,1.27
2018-12-19T04:48:46.455Z,1.26
2018-12-19T04:49:46.442Z,1.29
2018-12-19T04:50:46.433Z,1.36
2018-12-19T04:51:46.413Z,1.3
2018-12-19T04:52:46.390Z,1.32
2018-12-19T04:53:46.378Z,1.4
2018-12-19T04:54:46.361Z,1.26
2018-12-19T04:55:46.410Z,1.3
2018-12-19T04:56:46.322Z,1.34
2018-12-19T04:57:46.347Z,1.29
2018-12-19T04:58:46.289Z,1.41
2018-12-19T04:59:46.279Z,1.44
2018-12-19T05:00:46.255Z,1.45
2018-12-19T05:01:46.240Z,1.42
2018-12-19T05:02:46.222Z,1.42
2018-12-19T05:03:46.212Z,1.52
2018-12-19T05:04:46.189Z,1.52
2018-12-19T05:05:46.188Z,1.47
2018-12-19T05:06:46.189Z,1.58
2018-12-19T05:07:46.141Z,1.58
2018-12-19T05:08:46.120Z,1.59
2018-12-19T05:09:46.111Z,1.6
2018-12-19T05:10:46.095Z,1.54
2018-12-19T05:11:46.071Z,1.62
2018-12-19T05:12:46.055Z,1.6
2018-12-19T05:13:46.038Z,1.62
2018-12-19T05:14:46.104Z,1.59
2018-12-19T05:15:46.006Z,1.55
2018-12-19T05:16:45.998Z,1.63
2018-12-19T05:17:45.976Z,1.59
2018-12-19T05:18:45.953Z,1.62
2018-12-19T05:19:45.951Z,1.59
2018-12-19T05:20:45.921Z,1.62
2018-12-19T05:21:45.902Z,1.7
2018-12-19T05:22:45.891Z,1.62
2018-12-19T05:23:45.871Z,1.68
2018-12-19T05:24:45.888Z,1.72
2018-12-19T05:25:45.841Z,1.77
2018-12-19T05:26:45.821Z,1.76
2018-12-19T05:27:45.805Z,1.8
2018-12-19T05:28:45.789Z,1.79
2018-12-19T05:29:45.770Z,1.8
2018-12-19T05:30:45.755Z,1.66
2018-12-19T05:31:45.742Z,1.7
2018-12-19T05:32:45.719Z,1.72
2018-12-19T05:33:45.709Z,1.72
2018-12-19T05:34:45.689Z,1.73
2018-12-19T05:35:45.670Z,1.77
2018-12-19T05:36:45.657Z,1.73
2018-12-19T05:37:45.640Z,1.68
2018-12-19T05:38:45.623Z,1.7
2018-12-19T05:39:45.608Z,1.7
2018-12-19T05:40:45.585Z,1.72
2018-12-19T05:41:45.573Z,1.69
2018-12-19T05:42:45.556Z,1.77
2018-12-19T05:43:45.540Z,1.68
2018-12-19T05:44:45.526Z,1.7
2018-12-19T05:45:45.504Z,1.68
2018-12-19T05:46:45.487Z,1.69
2018-12-19T05:47:45.478Z,1.72
2018-12-19T05:48:45.454Z,1.69
2018-12-19T05:49:45.209Z,1.72
2018-12-19T05:50:45.423Z,1.65
2018-12-19T05:51:45.468Z,1.69
2018-12-19T05:52:45.390Z,1.69
2018-12-19T05:53:45.369Z,1.68
2018-12-19T05:54:45.356Z,1.69
2018-12-19T05:55:45.339Z,1.69
2018-12-19T05:56:45.322Z,1.63
2018-12-19T05:57:45.310Z,1.66
2018-12-19T05:58:45.289Z,1.66
2018-12-19T05:59:45.274Z,1.62
2018-12-19T06:00:45.294Z,1.62
2018-12-19T06:01:45.241Z,1.68
2018-12-19T06:02:45.223Z,1.58
2018-12-19T06:03:45.205Z,1.66
2018-12-19T06:04:45.194Z,1.68
2018-12-19T06:05:45.181Z,1.66
2018-12-19T06:06:45.153Z,1.69
2018-12-19T06:07:46.085Z,1.68
2018-12-19T06:08:45.122Z,1.76
2018-12-19T06:09:45.105Z,1.72
2018-12-19T06:10:45.097Z,1.77
2018-12-19T06:11:45.075Z,1.77
2018-12-19T06:12:45.062Z,1.72
2018-12-19T06:13:45.039Z,1.73
2018-12-19T06:14:45.027Z,1.81
2018-12-19T06:15:45.004Z,1.8
2018-12-19T06:16:44.992Z,1.77
2018-12-19T06:17:44.975Z,1.79
2018-12-19T06:18:44.960Z,1.77
2018-12-19T06:19:44.942Z,1.7
2018-12-19T06:20:44.934Z,1.8
2018-12-19T06:21:44.906Z,1.83
2018-12-19T06:22:44.896Z,1.7
2018-12-19T06:23:44.872Z,1.81
2018-12-19T06:24:44.855Z,1.72
2018-12-19T06:25:44.844Z,1.79
2018-12-19T06:26:44.825Z,1.76
2018-12-19T06:27:44.805Z,1.79
2018-12-19T06:28:44.799Z,1.76
2018-12-19T06:29:44.777Z,1.72
2018-12-19T06:30:44.758Z,1.77
2018-12-19T06:31:44.739Z,1.79
2018-12-19T06:32:44.723Z,1.81
2018-12-19T06:33:44.708Z,1.72
2018-12-19T06:34:44.696Z,1.81
2018-12-19T06:35:44.682Z,1.87
2018-12-19T06:36:44.657Z,1.86
2018-12-19T06:37:44.642Z,1.81
2018-12-19T06:38:44.624Z,1.77
2018-12-19T06:39:44.607Z,1.76
2018-12-19T06:40:44.590Z,1.81
2018-12-19T06:41:44.578Z,1.79
2018-12-19T06:42:44.559Z,1.8
2018-12-19T06:43:44.540Z,1.79
2018-12-19T06:44:44.525Z,1.76
2018-12-19T06:45:44.265Z,1.8
2018-12-19T06:46:44.491Z,1.86
2018-12-19T06:47:44.477Z,1.87
2018-12-19T06:48:44.459Z,1.88
2018-12-19T06:49:44.445Z,1.93
2018-12-19T06:50:44.427Z,1.9
2018-12-19T06:51:44.417Z,1.86
2018-12-19T06:52:44.394Z,1.91
2018-12-19T06:53:44.385Z,1.87
2018-12-19T06:54:44.357Z,1.91
2018-12-19T06:55:44.343Z,1.91
2018-12-19T06:56:44.324Z,1.91
2018-12-19T06:57:44.314Z,2
2018-12-19T06:58:44.296Z,2.02
2018-12-19T06:59:44.277Z,2.03
2018-12-19T07:00:44.260Z,2.06
2018-12-19T07:01:44.247Z,2.06
2018-12-19T07:02:44.230Z,2.09
2018-12-19T07:03:44.210Z,2.07
2018-12-19T07:04:44.193Z,2.05
2018-12-19T07:05:44.177Z,2.05
2018-12-19T07:06:44.159Z,2.1
2018-12-19T07:07:44.145Z,2.05
2018-12-19T07:08:44.143Z,2.05
2018-12-19T07:09:44.112Z,2.12
2018-12-19T07:10:44.149Z,2.1
2018-12-19T07:11:44.103Z,2.1
2018-12-19T07:12:44.064Z,2.16
2018-12-19T07:13:44.053Z,2.06
2018-12-19T07:14:44.039Z,2.14
2018-12-19T07:15:44.017Z,2.18
2018-12-19T07:16:48.251Z,2.09
2018-12-19T07:17:43.981Z,2.2
2018-12-19T07:18:43.966Z,2.06
2018-12-19T07:19:43.951Z,2.2
2018-12-19T07:20:43.941Z,2.1
2018-12-19T07:21:43.929Z,2.1
2018-12-19T07:22:43.905Z,2.21
2018-12-19T07:23:43.888Z,2.2
2018-12-19T07:24:43.877Z,2.16
2018-12-19T07:25:43.857Z,2.21
2018-12-19T07:26:43.836Z,2.2
2018-12-19T07:27:43.827Z,2.18
2018-12-19T07:28:43.804Z,2.17
2018-12-19T07:29:43.793Z,2.2
2018-12-19T07:30:43.775Z,2.21
2018-12-19T07:31:43.755Z,2.09
2018-12-19T07:32:43.765Z,2.2
2018-12-19T07:33:43.722Z,2.16
2018-12-19T07:34:49.081Z,2.21
2018-12-19T07:35:43.690Z,2.09
2018-12-19T07:36:43.720Z,2.21
2018-12-19T07:37:43.661Z,2.18
2018-12-19T07:38:43.644Z,2.2
2018-12-19T07:39:43.629Z,2.21
2018-12-19T07:40:48.135Z,2.31
2018-12-19T07:41:43.593Z,2.24
2018-12-19T07:42:43.339Z,2.35
2018-12-19T07:43:43.562Z,2.35
2018-12-19T07:44:43.547Z,2.35
2018-12-19T07:45:43.531Z,2.36
2018-12-19T07:46:43.513Z,2.31
2018-12-19T07:47:43.503Z,2.39
2018-12-19T07:48:43.484Z,2.46
2018-12-19T07:49:43.773Z,2.52
2018-12-19T07:50:43.449Z,2.45
2018-12-19T07:51:43.435Z,2.42
2018-12-19T07:52:43.415Z,2.52
2018-12-19T07:53:43.403Z,2.49
2018-12-19T07:54:43.393Z,2.56
2018-12-19T07:55:43.368Z,2.63
2018-12-19T07:56:43.355Z,2.64
2018-12-19T07:57:43.337Z,2.59
2018-12-19T07:58:43.323Z,2.57
2018-12-19T07:59:43.312Z,2.63
2018-12-19T08:00:43.298Z,2.71
2018-12-19T08:01:43.271Z,2.71
2018-12-19T08:02:43.263Z,2.77
2018-12-19T08:03:43.308Z,2.78
2018-12-19T08:04:43.237Z,2.82
2018-12-19T08:05:43.213Z,2.82
2018-12-19T08:06:43.200Z,2.82
2018-12-19T08:07:43.186Z,2.81
2018-12-19T08:08:43.170Z,2.9
2018-12-19T08:09:43.150Z,2.84
2018-12-19T08:10:43.131Z,2.96
2018-12-19T08:11:43.125Z,3.06
2018-12-19T08:12:43.099Z,3.13
2018-12-19T08:13:43.089Z,3.08
2018-12-19T08:14:43.072Z,3.03
2018-12-19T08:15:43.060Z,3.21
2018-12-19T08:16:43.045Z,3.2
2018-12-19T08:17:43.028Z,3.23
2018-12-19T08:18:43.014Z,3.2
2018-12-19T08:19:42.996Z,3.23
2018-12-19T08:20:42.979Z,3.31
2018-12-19T08:21:42.966Z,3.26
2018-12-19T08:22:42.960Z,3.31
2018-12-19T08:23:42.931Z,3.32
2018-12-19T08:24:42.923Z,3.29
2018-12-19T08:25:42.897Z,3.35
2018-12-19T08:26:42.883Z,3.28
2018-12-19T08:27:42.876Z,3.31
2018-12-19T08:28:42.854Z,3.31
2018-12-19T08:29:42.838Z,3.32
2018-12-19T08:30:43.074Z,3.29
2018-12-19T08:31:42.812Z,3.33
2018-12-19T08:32:42.795Z,3.35
2018-12-19T08:33:42.776Z,3.28
2018-12-19T08:34:42.764Z,3.28
2018-12-19T08:35:42.748Z,3.28
2018-12-19T08:36:42.731Z,3.33
2018-12-19T08:37:42.716Z,3.36
2018-12-19T08:38:42.705Z,3.35
2018-12-19T08:39:42.690Z,3.4
2018-12-19T08:40:42.669Z,3.26
2018-12-19T08:41:42.663Z,3.31
2018-12-19T08:42:42.640Z,3.35
2018-12-19T08:43:42.627Z,3.35
2018-12-19T08:44:42.616Z,3.36
2018-12-19T08:45:42.604Z,3.32
2018-12-19T08:46:42.590Z,3.4
2018-12-19T08:47:42.565Z,3.4
2018-12-19T08:48:42.551Z,3.42
2018-12-19T08:49:42.533Z,3.36
2018-12-19T08:50:42.522Z,3.4
2018-12-19T08:51:42.504Z,3.33
2018-12-19T08:52:42.492Z,3.42
2018-12-19T08:53:42.473Z,3.35
2018-12-19T08:54:42.458Z,3.43
2018-12-19T08:55:42.448Z,3.45
2018-12-19T08:56:42.430Z,3.4
2018-12-19T08:57:42.417Z,3.4
2018-12-19T08:58:42.404Z,3.47
2018-12-19T08:59:42.391Z,3.48
2018-12-19T09:00:42.368Z,3.65
2018-12-19T09:01:42.350Z,3.61
2018-12-19T09:02:42.401Z,3.54
2018-12-19T09:03:42.322Z,3.52
2018-12-19T09:04:42.309Z,3.55
2018-12-19T09:05:42.294Z,3.68
2018-12-19T09:06:42.282Z,3.61
2018-12-19T09:07:42.270Z,3.66
2018-12-19T09:08:42.251Z,3.72
2018-12-19T09:09:42.242Z,3.62
2018-12-19T09:10:42.218Z,3.69
2018-12-19T09:11:42.214Z,3.72
2018-12-19T09:12:42.191Z,3.72
2018-12-19T09:13:42.176Z,3.76
2018-12-19T09:14:42.161Z,3.83
2018-12-19T09:15:42.145Z,3.73
2018-12-19T09:16:42.134Z,3.75
2018-12-19T09:17:42.120Z,3.75
2018-12-19T09:18:42.099Z,3.78
2018-12-19T09:19:42.088Z,3.76
2018-12-19T09:20:42.072Z,3.78
2018-12-19T09:21:42.053Z,3.73
2018-12-19T09:22:42.042Z,3.78
2018-12-19T09:23:42.027Z,3.78
2018-12-19T09:24:42.010Z,3.73
2018-12-19T09:25:41.995Z,3.9
2018-12-19T09:26:41.983Z,3.84
2018-12-19T09:27:41.973Z,3.84
2018-12-19T09:28:41.954Z,3.87
2018-12-19T09:29:41.943Z,3.94
2018-12-19T09:30:41.921Z,3.9
2018-12-19T09:31:41.909Z,3.88
2018-12-19T09:32:41.891Z,3.9
2018-12-19T09:33:41.896Z,3.97
2018-12-19T09:34:41.863Z,3.96
2018-12-19T09:35:41.857Z,4.02
2018-12-19T09:36:41.833Z,3.84
2018-12-19T09:37:41.814Z,3.96
2018-12-19T09:38:43.365Z,3.94
2018-12-19T09:39:41.787Z,3.97
2018-12-19T09:40:41.775Z,3.97
2018-12-19T09:41:41.774Z,3.98
2018-12-19T09:42:41.745Z,3.98
2018-12-19T09:43:41.736Z,3.93
2018-12-19T09:44:41.715Z,3.97
2018-12-19T09:45:41.702Z,3.94
2018-12-19T09:46:41.692Z,3.9
2018-12-19T09:47:41.671Z,3.9
2018-12-19T09:48:41.663Z,3.93
2018-12-19T09:49:41.890Z,3.97
2018-12-19T09:50:41.626Z,3.97
2018-12-19T09:51:41.613Z,3.96
2018-12-19T09:52:41.606Z,3.91
2018-12-19T09:53:41.585Z,3.91
2018-12-19T09:54:41.566Z,3.98
2018-12-19T09:55:41.550Z,4.05
2018-12-19T09:56:41.537Z,4.04
2018-12-19T09:57:41.524Z,4.02
2018-12-19T09:58:41.518Z,4.05
2018-12-19T09:59:41.495Z,4
2018-12-19T10:00:41.478Z,4
2018-12-19T10:01:41.466Z,3.97
2018-12-19T10:02:42.242Z,4.09
2018-12-19T10:03:41.433Z,4.08
2018-12-19T10:04:41.419Z,4.05
2018-12-19T10:05:41.408Z,4.08
2018-12-19T10:06:41.396Z,4.14
2018-12-19T10:07:41.378Z,4.18
2018-12-19T10:08:41.361Z,4.05
2018-12-19T10:09:41.350Z,4.18
2018-12-19T10:10:41.329Z,4.22
2018-12-19T10:11:41.323Z,4.15
2018-12-19T10:12:41.305Z,4.29
2018-12-19T10:13:41.289Z,4.27
2018-12-19T10:14:41.276Z,4.26
2018-12-19T10:15:41.263Z,4.32
2018-12-19T10:16:41.246Z,4.36
2018-12-19T10:17:45.777Z,4.37
2018-12-19T10:18:41.218Z,4.48
2018-12-19T10:19:41.208Z,4.47
2018-12-19T10:20:41.440Z,4.5
2018-12-19T10:21:41.173Z,4.65
2018-12-19T10:22:41.159Z,4.62
2018-12-19T10:23:41.147Z,4.6
2018-12-19T10:24:41.132Z,4.67
2018-12-19T10:25:41.119Z,4.73
2018-12-19T10:26:41.101Z,4.8
2018-12-19T10:27:41.091Z,4.86
2018-12-19T10:28:41.076Z,4.89
2018-12-19T10:29:41.059Z,4.94
2018-12-19T10:30:41.045Z,5.03
2018-12-19T10:31:41.030Z,5
2018-12-19T10:32:41.018Z,5.04
2018-12-19T10:33:41.002Z,5
2018-12-19T10:34:40.995Z,5.1
2018-12-19T10:35:40.979Z,5.07
2018-12-19T10:36:40.960Z,5.15
2018-12-19T10:37:40.948Z,5.07
2018-12-19T10:38:40.972Z,5.17
2018-12-19T10:39:40.919Z,5.13
2018-12-19T10:40:40.905Z,5.13
2018-12-19T10:41:40.892Z,5.21
2018-12-19T10:42:40.881Z,5.2
2018-12-19T10:43:41.744Z,5.27
2018-12-19T10:44:40.853Z,5.25
2018-12-19T10:45:40.839Z,5.42
2018-12-19T10:46:40.871Z,5.43
2018-12-19T10:47:40.815Z,5.39
2018-12-19T10:48:40.795Z,5.45
2018-12-19T10:49:40.808Z,5.48
2018-12-19T10:50:40.766Z,5.54
2018-12-19T10:51:41.005Z,5.53
2018-12-19T10:52:40.741Z,5.58
2018-12-19T10:53:40.732Z,5.56
2018-12-19T10:54:40.716Z,5.6
2018-12-19T10:55:40.698Z,5.57
2018-12-19T10:56:40.687Z,5.54
2018-12-19T10:57:40.678Z,5.63
2018-12-19T10:58:40.659Z,5.56
2018-12-19T10:59:40.656Z,5.57
2018-12-19T11:00:40.637Z,5.51
2018-12-19T11:01:40.619Z,5.56
2018-12-19T11:02:40.613Z,5.58
2018-12-19T11:03:40.596Z,5.61
2018-12-19T11:04:40.583Z,5.64
2018-12-19T11:05:40.569Z,5.57
2018-12-19T11:06:40.553Z,5.64
2018-12-19T11:07:40.543Z,5.54
2018-12-19T11:08:40.532Z,5.64
2018-12-19T11:09:40.513Z,5.63
2018-12-19T11:10:40.513Z,5.64
2018-12-19T11:11:40.489Z,5.67
2018-12-19T11:12:40.471Z,5.75
2018-12-19T11:13:40.462Z,5.72
2018-12-19T11:14:40.450Z,5.68
2018-12-19T11:15:40.439Z,5.81
2018-12-19T11:16:40.423Z,5.75
2018-12-19T11:17:40.417Z,5.81
2018-12-19T11:18:40.393Z,5.78
2018-12-19T11:19:40.392Z,5.78
2018-12-19T11:20:40.367Z,5.79
2018-12-19T11:21:40.359Z,5.81
2018-12-19T11:22:40.344Z,5.91
2018-12-19T11:23:40.328Z,5.81
2018-12-19T11:24:40.321Z,5.86
2018-12-19T11:25:40.305Z,5.82
2018-12-19T11:26:40.288Z,5.83
2018-12-19T11:27:40.277Z,5.86
2018-12-19T11:28:40.265Z,5.81
2018-12-19T11:29:40.263Z,5.76
2018-12-19T11:30:40.234Z,5.72
2018-12-19T11:31:40.225Z,5.75
2018-12-19T11:32:40.212Z,5.71
2018-12-19T11:33:40.196Z,5.75
2018-12-19T11:34:40.214Z,5.76
2018-12-19T11:35:40.174Z,5.72
2018-12-19T11:36:40.158Z,5.68
2018-12-19T11:37:40.146Z,5.72
2018-12-19T11:38:40.130Z,5.76
2018-12-19T11:39:40.117Z,5.67
2018-12-19T11:40:40.117Z,5.68
2018-12-19T11:41:43.851Z,5.56
2018-12-19T11:42:40.076Z,5.63
2018-12-19T11:43:40.060Z,5.54
2018-12-19T11:44:40.047Z,5.61
2018-12-19T11:45:40.037Z,5.65
2018-12-19T11:46:40.083Z,5.67
2018-12-19T11:47:40.013Z,5.74
2018-12-19T11:48:40.033Z,5.74
2018-12-19T11:49:40.025Z,5.76
2018-12-19T11:50:39.970Z,5.65
2018-12-19T11:51:39.956Z,5.71
2018-12-19T11:52:39.942Z,5.76
2018-12-19T11:53:39.928Z,5.83
2018-12-19T11:54:39.948Z,5.81
2018-12-19T11:55:39.910Z,5.85
2018-12-19T11:56:39.890Z,5.86
2018-12-19T11:57:39.879Z,5.83
2018-12-19T11:58:39.863Z,5.81
2018-12-19T11:59:39.848Z,5.89
2018-12-19T12:00:39.843Z,5.89
2018-12-19T12:01:46.080Z,5.89
2018-12-19T12:02:39.811Z,5.85
2018-12-19T12:03:39.807Z,5.85
2018-12-19T12:04:39.785Z,5.82
2018-12-19T12:05:39.765Z,5.85
2018-12-19T12:06:39.758Z,5.86
2018-12-19T12:07:39.755Z,5.81
2018-12-19T12:08:39.728Z,5.85
2018-12-19T12:09:39.719Z,5.9
2018-12-19T12:10:39.704Z,5.96
2018-12-19T12:11:45.387Z,5.91
2018-12-19T12:12:39.676Z,5.99
2018-12-19T12:13:39.672Z,5.97
2018-12-19T12:14:39.653Z,5.97
2018-12-19T12:15:39.643Z,5.96
2018-12-19T12:16:39.622Z,6.01
2018-12-19T12:17:39.612Z,6
2018-12-19T12:18:39.597Z,6.08
2018-12-19T12:19:39.583Z,6.09
2018-12-19T12:20:39.571Z,6.09
2018-12-19T12:21:39.561Z,6.14
2018-12-19T12:22:41.074Z,6.25
2018-12-19T12:23:39.601Z,6.28
2018-12-19T12:24:39.534Z,6.3
2018-12-19T12:25:39.755Z,6.28
2018-12-19T12:26:39.492Z,6.3
2018-12-19T12:27:39.482Z,6.3
2018-12-19T12:28:39.467Z,6.31
2018-12-19T12:29:39.456Z,6.44
2018-12-19T12:30:39.439Z,6.46
2018-12-19T12:31:39.429Z,6.51
2018-12-19T12:32:39.416Z,6.48
2018-12-19T12:33:39.400Z,6.54
2018-12-19T12:34:39.388Z,6.49
2018-12-19T12:35:39.381Z,6.51
2018-12-19T12:36:39.367Z,6.46
2018-12-19T12:37:39.351Z,6.51
2018-12-19T12:38:39.339Z,6.49
2018-12-19T12:39:39.332Z,6.46
2018-12-19T12:40:39.313Z,6.46
2018-12-19T12:41:39.307Z,6.36
2018-12-19T12:42:39.294Z,6.38
2018-12-19T12:43:39.275Z,6.36
2018-12-19T12:44:53.974Z,6.36
2018-12-19T12:45:39.249Z,6.34
2018-12-19T12:46:38.991Z,6.33
2018-12-19T12:47:39.225Z,6.34
2018-12-19T12:48:39.209Z,6.38
2018-12-19T12:49:39.204Z,6.31
2018-12-19T12:50:39.185Z,6.43
2018-12-19T12:51:39.176Z,6.36
2018-12-19T12:52:39.158Z,6.43
2018-12-19T12:53:39.147Z,6.37
2018-12-19T12:54:39.139Z,6.43
2018-12-19T12:55:39.125Z,6.43
2018-12-19T12:56:39.111Z,6.37
2018-12-19T12:57:39.100Z,6.4
2018-12-19T12:58:39.082Z,6.49
2018-12-19T12:59:39.066Z,6.44
2018-12-19T13:00:40.645Z,6.51
2018-12-19T13:01:39.041Z,6.54
2018-12-19T13:02:39.035Z,6.46
2018-12-19T13:03:39.015Z,6.51
2018-12-19T13:04:39.009Z,6.49
2018-12-19T13:05:38.989Z,6.46
2018-12-19T13:06:38.974Z,6.51
2018-12-19T13:07:38.966Z,6.49
2018-12-19T13:08:38.953Z,6.55
2018-12-19T13:09:38.938Z,6.51
2018-12-19T13:10:41.218Z,6.44
2018-12-19T13:11:38.914Z,6.44
2018-12-19T13:12:38.899Z,6.43
2018-12-19T13:13:38.886Z,6.44
2018-12-19T13:14:38.874Z,6.37
2018-12-19T13:15:38.860Z,6.4
2018-12-19T13:16:38.850Z,6.43
2018-12-19T13:17:38.837Z,6.4
2018-12-19T13:18:38.825Z,6.37
2018-12-19T13:19:38.817Z,6.4
2018-12-19T13:20:38.801Z,6.31
2018-12-19T13:21:38.789Z,6.34
2018-12-19T13:22:38.769Z,6.33